Time;durP1;ratioP1;P1;durP2;ratioP2;P2;SDS_P1;SDS_P2;PMS_P1;PMS_P2;Temp;Humidity;BMP_temperature;BMP_pressure;BME280_temperature;BME280_humidity;BME280_pressure;Samples;Min_cycle;Max_cycle;Signal;HPM_P1;HPM_P2
2023/12/27 00:00:53;;;;;;;10.05;3.40;;;9.70;71.60;;;;;;5047517;28;20064;-85
2023/12/27 00:03:19;;;;;;;10.20;2.50;;;9.70;71.60;;;;;;5031481;28;20159;-86
2023/12/27 00:05:45;;;;;;;7.35;2.67;;;9.70;71.60;;;;;;5022383;28;20029;-84
2023/12/27 00:08:11;;;;;;;9.30;3.25;;;9.70;71.60;;;;;;5031861;28;20529;-85
2023/12/27 00:10:37;;;;;;;4.45;2.42;;;9.70;71.70;;;;;;5038784;28;20150;-86
2023/12/27 00:13:03;;;;;;;5.47;2.65;;;9.70;71.70;;;;;;5048613;28;20121;-88
2023/12/27 00:15:29;;;;;;;7.75;2.95;;;9.80;71.90;;;;;;5037190;28;20032;-87
2023/12/27 00:17:55;;;;;;;6.47;2.88;;;9.70;71.70;;;;;;5030006;28;20373;-86
2023/12/27 00:20:21;;;;;;;11.80;3.42;;;9.80;71.90;;;;;;5039058;28;20506;-85
2023/12/27 00:22:47;;;;;;;8.20;2.58;;;9.80;72.00;;;;;;5032155;28;20044;-85
2023/12/27 00:25:13;;;;;;;6.50;2.85;;;9.80;72.00;;;;;;5045335;28;20114;-86
2023/12/27 00:27:39;;;;;;;5.50;2.63;;;9.80;72.10;;;;;;5020781;28;20029;-85
2023/12/27 00:30:06;;;;;;;7.70;2.80;;;9.80;72.10;;;;;;5033174;28;20109;-87
2023/12/27 00:32:34;;;;;;;9.85;3.47;;;9.80;72.10;;;;;;5051115;28;20533;-87
2023/12/27 00:35:01;;;;;;;5.85;2.55;;;9.80;72.10;;;;;;5029781;28;20498;-88
2023/12/27 00:37:27;;;;;;;9.63;2.80;;;9.80;72.10;;;;;;5048023;28;20037;-88
2023/12/27 00:39:53;;;;;;;8.10;2.80;;;9.80;72.20;;;;;;5030208;28;20119;-87
2023/12/27 00:42:22;;;;;;;6.18;3.40;;;9.90;72.40;;;;;;5037541;28;20484;-86
2023/12/27 00:44:49;;;;;;;4.63;2.80;;;9.90;72.40;;;;;;5034568;28;20037;-87
2023/12/27 00:47:16;;;;;;;7.68;2.30;;;9.90;72.40;;;;;;5030332;28;20048;-84
2023/12/27 00:49:42;;;;;;;9.18;3.00;;;9.90;72.50;;;;;;5018571;28;20025;-87
2023/12/27 00:52:10;;;;;;;6.43;2.67;;;9.90;72.50;;;;;;5034018;28;20472;-85
2023/12/27 00:54:36;;;;;;;8.35;3.42;;;9.90;72.50;;;;;;5037606;28;20124;-85
2023/12/27 00:57:02;;;;;;;11.48;3.45;;;9.90;72.50;;;;;;5036266;28;20474;-85
2023/12/27 00:59:28;;;;;;;4.10;2.03;;;10.00;72.80;;;;;;5034262;28;20029;-85
2023/12/27 01:01:54;;;;;;;4.47;2.47;;;9.90;72.60;;;;;;5042030;28;20132;-85
2023/12/27 01:04:20;;;;;;;6.18;2.45;;;10.00;72.80;;;;;;5038868;28;20037;-86
2023/12/27 01:06:47;;;;;;;6.38;1.95;;;9.90;72.70;;;;;;5017295;28;20233;-87
2023/12/27 01:09:13;;;;;;;5.95;2.15;;;9.90;72.70;;;;;;5038044;28;20033;-87
2023/12/27 01:11:40;;;;;;;3.00;1.60;;;10.00;72.90;;;;;;5039901;28;20060;-86
2023/12/27 01:14:06;;;;;;;4.82;1.73;;;10.00;73.00;;;;;;5037668;28;20091;-86
2023/12/27 01:16:32;;;;;;;4.18;1.88;;;10.00;73.00;;;;;;5030375;28;20021;-85
2023/12/27 01:18:57;;;;;;;3.72;1.90;;;10.00;73.10;;;;;;5053059;28;20401;-85
2023/12/27 01:21:23;;;;;;;3.30;2.13;;;10.00;73.10;;;;;;5039448;28;20490;-84
2023/12/27 01:23:49;;;;;;;6.10;2.53;;;10.00;73.20;;;;;;5043502;28;20032;-84
2023/12/27 01:26:16;;;;;;;4.70;2.15;;;10.00;73.20;;;;;;5034274;28;20192;-85
2023/12/27 01:28:42;;;;;;;4.03;1.90;;;10.00;73.20;;;;;;5039806;28;20132;-86
2023/12/27 01:31:09;;;;;;;6.18;2.28;;;10.00;73.20;;;;;;5041786;28;20178;-85
2023/12/27 01:33:36;;;;;;;2.63;2.05;;;10.00;73.30;;;;;;5045597;28;20079;-84
2023/12/27 01:36:07;;;;;;;3.92;2.15;;;10.10;73.50;;;;;;5034580;28;20032;-84
2023/12/27 01:38:34;;;;;;;2.95;2.58;;;10.10;73.50;;;;;;5046107;28;20257;-84
2023/12/27 01:41:00;;;;;;;2.97;2.60;;;10.10;73.50;;;;;;5042059;28;20271;-83
2023/12/27 01:43:28;;;;;;;2.97;2.50;;;10.10;73.60;;;;;;5041253;28;20039;-83
2023/12/27 01:45:56;;;;;;;3.25;2.53;;;10.10;73.60;;;;;;5051215;28;20028;-87
2023/12/27 01:48:22;;;;;;;3.72;2.60;;;10.10;73.70;;;;;;5024199;28;20045;-85
2023/12/27 01:50:54;;;;;;;3.55;2.58;;;10.10;73.70;;;;;;5034521;28;20132;-85
2023/12/27 01:53:22;;;;;;;3.03;2.72;;;10.10;73.80;;;;;;5040283;28;20443;-85
2023/12/27 01:55:49;;;;;;;3.97;2.72;;;10.10;73.80;;;;;;5045445;28;20108;-86
2023/12/27 01:58:16;;;;;;;3.17;2.70;;;10.10;73.80;;;;;;5055058;28;20186;-86
2023/12/27 02:00:44;;;;;;;3.15;2.45;;;10.10;73.80;;;;;;5034300;28;20025;-88
2023/12/27 02:03:11;;;;;;;3.28;2.00;;;10.10;73.90;;;;;;5041529;28;20382;-88
2023/12/27 02:05:39;;;;;;;3.08;2.33;;;10.10;74.00;;;;;;5049868;28;20052;-90
2023/12/27 02:08:08;;;;;;;3.75;2.40;;;10.20;74.20;;;;;;5036013;28;20934;-86
2023/12/27 02:10:35;;;;;;;4.07;2.38;;;10.20;74.20;;;;;;5055898;28;20212;-85
2023/12/27 02:13:05;;;;;;;3.05;2.50;;;10.20;74.20;;;;;;5032548;28;20028;-86
2023/12/27 02:15:33;;;;;;;2.90;1.80;;;10.20;74.30;;;;;;5046112;28;20040;-85
2023/12/27 02:18:01;;;;;;;2.30;2.10;;;10.20;74.30;;;;;;5038289;28;20577;-84
2023/12/27 02:20:27;;;;;;;2.92;1.65;;;10.20;74.90;;;;;;5033671;28;20395;-84
2023/12/27 02:22:56;;;;;;;2.80;1.50;;;10.20;74.40;;;;;;5044311;28;20083;-85
2023/12/27 02:25:23;;;;;;;2.13;1.63;;;10.30;74.60;;;;;;5022004;28;20092;-83
2023/12/27 02:27:49;;;;;;;2.22;1.67;;;10.30;74.60;;;;;;5028576;28;20034;-84
2023/12/27 02:30:19;;;;;;;2.08;1.50;;;10.30;74.70;;;;;;5037347;28;20503;-84
2023/12/27 02:32:49;;;;;;;2.28;1.30;;;10.30;74.80;;;;;;5032414;28;20072;-84
2023/12/27 02:35:16;;;;;;;2.67;1.88;;;10.40;75.00;;;;;;5034358;28;20448;-82
2023/12/27 02:37:43;;;;;;;2.25;1.35;;;10.40;75.10;;;;;;5039544;28;20478;-84
2023/12/27 02:40:09;;;;;;;2.58;1.70;;;10.40;75.10;;;;;;5040984;28;20033;-83
2023/12/27 02:42:40;;;;;;;2.63;1.55;;;10.40;75.20;;;;;;5039410;28;20061;-85
2023/12/27 02:45:07;;;;;;;1.80;1.40;;;10.40;75.20;;;;;;5050595;28;20429;-84
2023/12/27 02:47:33;;;;;;;3.15;1.33;;;10.40;75.30;;;;;;5021336;28;20106;-84
2023/12/27 02:49:59;;;;;;;3.10;1.48;;;10.50;75.50;;;;;;5027908;28;20041;-83
2023/12/27 02:52:25;;;;;;;3.03;1.65;;;10.50;75.60;;;;;;5042004;28;20452;-84
2023/12/27 02:54:51;;;;;;;2.67;1.33;;;10.50;75.70;;;;;;5035212;28;20545;-82
2023/12/27 02:57:17;;;;;;;1.75;1.20;;;10.60;75.90;;;;;;5039613;28;20128;-86
2023/12/27 02:59:44;;;;;;;3.15;1.48;;;10.50;75.80;;;;;;5018511;28;20482;-84
2023/12/27 03:02:11;;;;;;;1.40;0.95;;;10.60;76.00;;;;;;5030455;28;20032;-89
2023/12/27 03:04:38;;;;;;;5.15;1.40;;;10.60;76.10;;;;;;5030023;28;20082;-87
2023/12/27 03:07:07;;;;;;;2.38;1.42;;;10.70;76.30;;;;;;5032851;28;20033;-88
2023/12/27 03:09:34;;;;;;;2.40;1.10;;;10.60;76.20;;;;;;5045691;28;20044;-87
2023/12/27 03:11:59;;;;;;;2.13;1.08;;;10.70;76.40;;;;;;5040643;28;20482;-87
2023/12/27 03:14:27;;;;;;;5.07;1.45;;;10.70;76.40;;;;;;5041647;28;20509;-86
2023/12/27 03:16:55;;;;;;;2.22;1.00;;;10.70;76.50;;;;;;5034084;28;20569;-84
2023/12/27 03:19:20;;;;;;;2.17;0.88;;;10.80;76.70;;;;;;5033894;28;20030;-84
2023/12/27 03:21:48;;;;;;;1.92;0.98;;;10.80;76.80;;;;;;5020375;28;20483;-85
2023/12/27 03:24:16;;;;;;;2.08;1.00;;;10.80;76.80;;;;;;5037230;28;20132;-85
2023/12/27 03:26:43;;;;;;;3.08;1.00;;;10.80;76.90;;;;;;5020316;28;20536;-85
2023/12/27 03:29:09;;;;;;;2.25;0.90;;;10.80;76.90;;;;;;5027651;28;20045;-84
2023/12/27 03:31:36;;;;;;;2.38;0.70;;;10.90;77.10;;;;;;5022776;28;20206;-84
2023/12/27 03:34:02;;;;;;;1.30;0.80;;;10.90;77.20;;;;;;5046162;28;20098;-84
2023/12/27 03:36:29;;;;;;;1.90;0.80;;;10.80;77.10;;;;;;5038910;28;20036;-85
2023/12/27 03:38:56;;;;;;;1.25;0.98;;;10.90;77.30;;;;;;5037578;28;20432;-86
2023/12/27 03:41:22;;;;;;;1.38;1.10;;;10.90;77.30;;;;;;5056704;28;20100;-83
2023/12/27 03:43:49;;;;;;;2.05;0.73;;;10.90;77.30;;;;;;5024014;28;20120;-84
2023/12/27 03:46:17;;;;;;;3.97;1.02;;;10.90;77.40;;;;;;5037186;28;20313;-84
2023/12/27 03:48:42;;;;;;;1.92;0.70;;;10.90;77.40;;;;;;5040470;28;20034;-84
2023/12/27 03:51:09;;;;;;;2.80;1.00;;;10.90;77.50;;;;;;5034151;28;20088;-84
2023/12/27 03:53:34;;;;;;;0.93;0.63;;;10.90;77.50;;;;;;5038551;28;20040;-85
2023/12/27 03:56:01;;;;;;;2.90;1.10;;;11.00;77.70;;;;;;5034425;28;20032;-85
2023/12/27 03:58:27;;;;;;;2.67;0.80;;;11.00;77.80;;;;;;5021991;28;20044;-85
2023/12/27 04:00:55;;;;;;;2.25;0.93;;;11.00;77.80;;;;;;5039956;28;20091;-85
2023/12/27 04:03:21;;;;;;;4.65;1.00;;;11.00;77.80;;;;;;5057270;28;20044;-85
2023/12/27 04:05:47;;;;;;;2.30;0.88;;;11.00;77.80;;;;;;5039651;28;20142;-85
2023/12/27 04:08:12;;;;;;;2.38;0.90;;;11.00;77.80;;;;;;5040037;28;20407;-84
2023/12/27 04:10:38;;;;;;;4.25;1.30;;;11.10;78.00;;;;;;5023497;28;20472;-84
2023/12/27 04:13:04;;;;;;;3.63;1.20;;;11.10;78.00;;;;;;5032071;28;20107;-85
2023/12/27 04:15:30;;;;;;;3.42;1.08;;;11.10;78.00;;;;;;5032902;28;20284;-85
2023/12/27 04:17:56;;;;;;;3.53;1.40;;;11.10;78.00;;;;;;5032876;28;20021;-85
2023/12/27 04:20:22;;;;;;;3.67;1.48;;;11.10;78.10;;;;;;5051445;28;20391;-86
2023/12/27 04:22:48;;;;;;;5.13;1.20;;;11.10;78.10;;;;;;5038613;28;20226;-85
2023/12/27 04:25:14;;;;;;;3.92;1.30;;;11.10;78.10;;;;;;5034620;28;20032;-85
2023/12/27 04:27:41;;;;;;;5.43;1.50;;;11.10;78.10;;;;;;5048078;28;20460;-85
2023/12/27 04:30:07;;;;;;;4.30;1.40;;;11.20;78.30;;;;;;5032271;28;20048;-84
2023/12/27 04:32:33;;;;;;;4.47;1.58;;;11.20;78.30;;;;;;5043339;28;20024;-84
2023/12/27 04:34:59;;;;;;;4.47;1.70;;;11.20;78.30;;;;;;5038715;28;20375;-85
2023/12/27 04:37:26;;;;;;;4.80;1.42;;;11.20;78.30;;;;;;5046875;28;20017;-87
2023/12/27 04:39:52;;;;;;;6.22;1.80;;;11.20;78.40;;;;;;5048473;28;20245;-87
2023/12/27 04:42:19;;;;;;;3.78;1.60;;;11.20;78.50;;;;;;5047757;28;20017;-85
2023/12/27 04:44:46;;;;;;;5.95;2.00;;;11.20;78.40;;;;;;5044081;28;20251;-85
2023/12/27 04:47:13;;;;;;;4.28;1.60;;;11.20;78.50;;;;;;5068510;28;20101;-86
2023/12/27 04:49:39;;;;;;;4.13;1.73;;;11.20;78.50;;;;;;5044888;28;20016;-86
2023/12/27 04:52:05;;;;;;;5.30;2.08;;;11.30;78.70;;;;;;5050066;28;20267;-87
2023/12/27 04:54:31;;;;;;;6.32;1.55;;;11.30;78.70;;;;;;5041250;28;20082;-86
2023/12/27 04:56:57;;;;;;;6.93;1.83;;;11.30;78.80;;;;;;5045848;28;20427;-85
2023/12/27 04:59:23;;;;;;;5.32;1.70;;;11.30;78.80;;;;;;5030711;28;20021;-86
2023/12/27 05:01:51;;;;;;;5.53;2.38;;;11.30;78.80;;;;;;5028895;28;20081;-85
2023/12/27 05:04:17;;;;;;;3.95;1.33;;;11.30;78.80;;;;;;5039298;28;20116;-85
2023/12/27 05:06:43;;;;;;;2.83;1.58;;;11.40;79.00;;;;;;5029747;28;20092;-84
2023/12/27 05:09:09;;;;;;;4.38;1.50;;;11.40;79.00;;;;;;5046915;28;20820;-85
2023/12/27 05:11:35;;;;;;;3.33;1.95;;;11.40;79.00;;;;;;5047974;28;20048;-85
2023/12/27 05:14:01;;;;;;;2.90;1.45;;;11.40;79.00;;;;;;5047776;28;20409;-85
2023/12/27 05:16:27;;;;;;;3.78;1.45;;;11.40;79.00;;;;;;5043718;28;20032;-84
2023/12/27 05:18:53;;;;;;;3.63;1.63;;;11.40;79.00;;;;;;5041105;28;20033;-86
2023/12/27 05:21:19;;;;;;;4.50;2.28;;;11.40;78.90;;;;;;5058137;28;20320;-86
2023/12/27 05:23:45;;;;;;;3.58;1.52;;;11.40;78.90;;;;;;5046251;28;20075;-85
2023/12/27 05:26:11;;;;;;;4.25;1.45;;;11.40;78.90;;;;;;5040814;28;20515;-84
2023/12/27 05:28:37;;;;;;;2.95;1.45;;;11.50;79.00;;;;;;5042194;28;20393;-85
2023/12/27 05:31:03;;;;;;;4.38;1.58;;;11.50;79.00;;;;;;5047353;28;20025;-84
2023/12/27 05:33:29;;;;;;;4.20;1.30;;;11.50;79.00;;;;;;5056845;28;20065;-86
2023/12/27 05:35:56;;;;;;;1.75;1.10;;;11.50;79.00;;;;;;5045022;28;20425;-86
2023/12/27 05:38:22;;;;;;;4.28;1.45;;;11.60;79.10;;;;;;5038167;28;20364;-86
2023/12/27 05:40:48;;;;;;;3.28;1.92;;;11.60;79.10;;;;;;5029245;28;20033;-87
2023/12/27 05:43:15;;;;;;;3.42;1.50;;;11.60;79.00;;;;;;5027311;28;20057;-84
2023/12/27 05:45:41;;;;;;;4.38;1.70;;;11.60;79.00;;;;;;5043002;28;20163;-86
2023/12/27 05:48:09;;;;;;;4.55;1.50;;;11.60;79.00;;;;;;5048445;28;20449;-85
2023/12/27 05:50:35;;;;;;;3.75;1.70;;;11.60;79.00;;;;;;5025451;28;20582;-85
2023/12/27 05:53:01;;;;;;;4.28;2.70;;;11.70;79.10;;;;;;5029804;28;20060;-85
2023/12/27 05:55:30;;;;;;;3.75;1.75;;;11.70;79.10;;;;;;5047541;28;20071;-88
2023/12/27 05:57:56;;;;;;;4.70;1.55;;;11.70;79.10;;;;;;5044332;28;20102;-87
2023/12/27 06:00:23;;;;;;;4.05;1.45;;;11.70;79.10;;;;;;5050589;28;20022;-87
2023/12/27 06:02:49;;;;;;;5.75;1.80;;;11.70;79.10;;;;;;5045487;28;20025;-86
2023/12/27 06:05:15;;;;;;;5.30;1.98;;;11.70;79.10;;;;;;5047176;28;20868;-86
2023/12/27 06:07:41;;;;;;;4.65;1.77;;;11.70;79.10;;;;;;5042816;28;20082;-83
2023/12/27 06:10:08;;;;;;;3.97;1.63;;;11.70;79.00;;;;;;5041900;28;20200;-84
2023/12/27 06:12:34;;;;;;;8.02;2.25;;;11.80;79.20;;;;;;5036005;28;20029;-84
2023/12/27 06:15:02;;;;;;;5.45;1.95;;;11.80;79.20;;;;;;5049283;28;21056;-84
2023/12/27 06:17:28;;;;;;;4.72;2.17;;;11.80;79.20;;;;;;5031978;28;20151;-83
2023/12/27 06:19:54;;;;;;;5.65;1.80;;;11.80;79.30;;;;;;5043502;28;20021;-83
2023/12/27 06:22:20;;;;;;;5.03;1.80;;;11.80;79.30;;;;;;5053162;28;20774;-85
2023/12/27 06:24:46;;;;;;;5.05;2.05;;;11.80;79.30;;;;;;5041739;28;20031;-83
2023/12/27 06:27:12;;;;;;;4.70;2.15;;;11.80;79.30;;;;;;5037351;28;20029;-84
2023/12/27 06:29:39;;;;;;;6.25;1.92;;;11.90;79.50;;;;;;5029125;28;20040;-85
2023/12/27 06:32:05;;;;;;;5.78;2.08;;;11.80;79.30;;;;;;5039784;28;20049;-84
2023/12/27 06:34:31;;;;;;;5.95;2.60;;;11.90;79.50;;;;;;5040793;28;20049;-82
2023/12/27 06:36:57;;;;;;;6.05;2.28;;;11.90;79.50;;;;;;5035080;28;20505;-85
2023/12/27 06:39:23;;;;;;;3.35;1.70;;;11.90;79.50;;;;;;5039057;28;20091;-83
2023/12/27 06:41:50;;;;;;;4.63;1.90;;;11.90;79.50;;;;;;5039420;28;20491;-83
2023/12/27 06:44:16;;;;;;;4.20;1.70;;;11.90;79.40;;;;;;5031854;28;20078;-84
2023/12/27 06:46:42;;;;;;;5.65;2.28;;;11.90;79.50;;;;;;5012757;28;20506;-85
2023/12/27 06:49:08;;;;;;;4.35;1.70;;;11.90;79.40;;;;;;5023730;28;20083;-84
2023/12/27 06:51:34;;;;;;;3.90;1.95;;;12.00;79.70;;;;;;5035464;28;20337;-85
2023/12/27 06:54:00;;;;;;;7.25;2.35;;;12.00;79.60;;;;;;5037189;28;20558;-85
2023/12/27 06:56:27;;;;;;;4.30;2.13;;;12.00;79.70;;;;;;5036399;28;20413;-85
2023/12/27 06:58:54;;;;;;;6.10;1.80;;;12.00;79.70;;;;;;5035676;28;20029;-86
2023/12/27 07:01:20;;;;;;;3.42;1.63;;;12.00;79.60;;;;;;5025979;28;20048;-86
2023/12/27 07:03:46;;;;;;;8.88;2.22;;;12.00;79.60;;;;;;5031611;28;20037;-86
2023/12/27 07:06:12;;;;;;;6.55;2.60;;;12.00;79.70;;;;;;5054924;28;20025;-85
2023/12/27 07:08:39;;;;;;;6.32;2.20;;;12.10;79.80;;;;;;5025703;28;20509;-90
2023/12/27 07:11:05;;;;;;;4.22;2.13;;;12.10;79.90;;;;;;5039185;28;20040;-86
2023/12/27 07:13:31;;;;;;;6.55;2.70;;;12.10;79.90;;;;;;5036332;28;20037;-84
2023/12/27 07:16:00;;;;;;;7.80;2.38;;;12.10;79.90;;;;;;5057315;28;20033;-85
2023/12/27 07:18:27;;;;;;;8.25;2.35;;;12.10;79.90;;;;;;5055241;28;20108;-86
2023/12/27 07:20:53;;;;;;;6.28;2.10;;;12.10;79.90;;;;;;5037088;28;20040;-84
2023/12/27 07:23:19;;;;;;;5.85;2.28;;;12.20;80.20;;;;;;5048902;28;20039;-86
2023/12/27 07:25:45;;;;;;;5.97;2.03;;;12.10;80.10;;;;;;5055696;28;20098;-85
2023/12/27 07:28:12;;;;;;;47.25;8.93;;;12.20;80.30;;;;;;5049730;28;20624;-84
2023/12/27 07:30:37;;;;;;;42.63;9.68;;;12.20;80.40;;;;;;5040781;28;20032;-84
2023/12/27 07:33:04;;;;;;;25.05;7.35;;;12.30;80.70;;;;;;5057873;28;20042;-82
2023/12/27 07:35:30;;;;;;;24.10;6.93;;;12.30;80.70;;;;;;5028664;28;20059;-84
2023/12/27 07:37:56;;;;;;;28.33;6.55;;;12.40;80.90;;;;;;5020295;28;20037;-83
2023/12/27 07:40:23;;;;;;;26.52;6.45;;;12.40;80.90;;;;;;5044871;28;20036;-84
2023/12/27 07:42:51;;;;;;;18.50;5.18;;;12.40;80.90;;;;;;5034349;28;20032;-84
2023/12/27 07:45:20;;;;;;;18.15;4.88;;;12.40;80.90;;;;;;5039501;28;20033;-84
2023/12/27 07:47:46;;;;;;;16.13;4.63;;;12.40;80.90;;;;;;5049065;28;20107;-84
2023/12/27 07:50:12;;;;;;;16.80;4.68;;;12.50;81.10;;;;;;5053106;28;20032;-84
2023/12/27 07:52:38;;;;;;;16.88;4.15;;;12.50;81.10;;;;;;5055539;28;20117;-85
2023/12/27 07:55:29;;;;;;;15.02;4.20;;;12.50;81.10;;;;;;5050234;28;20152;-82
2023/12/27 07:57:56;;;;;;;13.32;3.60;;;12.50;81.20;;;;;;5035883;28;20531;-83
2023/12/27 08:00:22;;;;;;;12.95;4.15;;;12.50;81.30;;;;;;5040839;28;20482;-88
2023/12/27 08:02:49;;;;;;;14.18;3.95;;;12.50;81.10;;;;;;5033617;28;20029;-84
2023/12/27 08:05:16;;;;;;;9.05;3.10;;;12.50;81.10;;;;;;5030377;28;20089;-84
2023/12/27 08:07:43;;;;;;;9.98;3.33;;;12.50;81.10;;;;;;5034879;28;20039;-82
2023/12/27 08:10:10;;;;;;;8.18;2.95;;;12.50;81.20;;;;;;5031257;28;20408;-83
2023/12/27 08:12:36;;;;;;;12.35;3.80;;;12.50;81.20;;;;;;5036771;28;20036;-83
2023/12/27 08:15:03;;;;;;;9.00;3.38;;;12.60;81.40;;;;;;5034538;28;20069;-82
2023/12/27 08:17:29;;;;;;;10.70;3.47;;;12.50;81.20;;;;;;5029452;28;20036;-84
2023/12/27 08:19:55;;;;;;;5.85;2.88;;;12.50;81.20;;;;;;5032572;28;20412;-82
2023/12/27 08:22:21;;;;;;;7.75;2.95;;;12.60;81.40;;;;;;5055436;28;20063;-86
2023/12/27 08:24:47;;;;;;;7.15;3.10;;;12.60;81.40;;;;;;5041032;28;20161;-83
2023/12/27 08:27:13;;;;;;;6.28;2.28;;;12.60;81.40;;;;;;5036727;28;20033;-83
2023/12/27 08:29:39;;;;;;;5.25;2.60;;;12.60;81.40;;;;;;5030817;28;20551;-85
2023/12/27 08:32:05;;;;;;;7.22;2.67;;;12.60;81.40;;;;;;5046382;28;20024;-85
2023/12/27 08:34:31;;;;;;;6.80;2.90;;;12.60;81.40;;;;;;5059259;28;20490;-84
2023/12/27 08:36:57;;;;;;;5.80;2.38;;;12.60;81.40;;;;;;5032401;28;20029;-84
2023/12/27 08:39:23;;;;;;;6.55;2.10;;;12.60;81.40;;;;;;5029085;28;20519;-84
2023/12/27 08:41:50;;;;;;;7.82;2.70;;;12.70;81.60;;;;;;5045302;28;20036;-85
2023/12/27 08:44:17;;;;;;;6.47;3.25;;;12.70;81.60;;;;;;5036679;28;20657;-84
2023/12/27 08:46:43;;;;;;;5.82;2.95;;;12.70;81.60;;;;;;5016115;28;20143;-82
2023/12/27 08:49:09;;;;;;;6.32;2.50;;;12.70;81.60;;;;;;5027468;28;20033;-82
2023/12/27 08:51:35;;;;;;;4.50;2.25;;;12.70;81.60;;;;;;5009480;28;20100;-83
2023/12/27 08:54:02;;;;;;;7.85;2.67;;;12.70;81.60;;;;;;5034812;28;20041;-84
2023/12/27 08:56:28;;;;;;;5.15;2.33;;;12.70;81.60;;;;;;5024229;28;20029;-83
2023/12/27 08:58:54;;;;;;;6.72;2.55;;;12.70;81.60;;;;;;5029371;28;20040;-84
2023/12/27 09:01:19;;;;;;;5.43;2.22;;;12.80;81.80;;;;;;5032474;28;20083;-83
2023/12/27 09:03:48;;;;;;;6.45;2.53;;;12.70;81.60;;;;;;5041156;28;20066;-85
2023/12/27 09:06:16;;;;;;;8.20;3.50;;;12.80;81.80;;;;;;5048515;28;20131;-84
2023/12/27 09:08:42;;;;;;;5.88;2.60;;;12.80;81.70;;;;;;5019312;28;20029;-85
2023/12/27 09:11:09;;;;;;;4.22;2.13;;;12.80;81.80;;;;;;5041981;28;20068;-88
2023/12/27 09:13:35;;;;;;;290.33;69.45;;;12.80;81.70;;;;;;5043114;28;20497;-82
2023/12/27 09:16:03;;;;;;;78.55;19.52;;;12.80;81.80;;;;;;5042669;28;20075;-91
2023/12/27 09:18:29;;;;;;;65.55;17.33;;;12.80;82.20;;;;;;5059281;28;20036;-90
2023/12/27 09:20:55;;;;;;;63.47;15.50;;;12.90;82.50;;;;;;5039404;28;20021;-91
2023/12/27 09:23:21;;;;;;;47.50;12.40;;;13.00;82.60;;;;;;5025331;28;20029;-92
2023/12/27 09:25:47;;;;;;;42.90;13.27;;;13.00;82.60;;;;;;5050871;28;20036;-91
2023/12/27 09:28:13;;;;;;;36.47;8.82;;;13.10;82.60;;;;;;5037102;28;20327;-91
2023/12/27 09:30:40;;;;;;;31.77;9.30;;;13.10;82.50;;;;;;5033177;28;20052;-90
2023/12/27 09:33:06;;;;;;;30.85;8.68;;;13.20;83.10;;;;;;5043907;28;20063;-90
2023/12/27 09:35:32;;;;;;;24.83;7.97;;;13.20;82.40;;;;;;5059910;28;20523;-95
2023/12/27 09:37:58;;;;;;;16.60;4.82;;;13.20;82.30;;;;;;5052428;28;20109;-90
2023/12/27 09:40:24;;;;;;;16.98;5.10;;;13.20;82.70;;;;;;5041099;28;20301;-92
2023/12/27 09:42:52;;;;;;;12.18;4.15;;;13.30;82.50;;;;;;5020475;28;20108;-93
2023/12/27 09:45:21;;;;;;;11.75;4.13;;;13.40;82.70;;;;;;5036166;28;20360;-91
2023/12/27 09:47:53;;;;;;;11.68;4.50;;;13.40;82.50;;;;;;5041460;28;20399;-91
2023/12/27 09:50:20;;;;;;;8.95;3.85;;;13.50;82.60;;;;;;5054255;28;20216;-90
2023/12/27 09:52:47;;;;;;;13.20;4.20;;;13.50;82.40;;;;;;5026355;28;20068;-90
2023/12/27 09:55:14;;;;;;;9.98;3.13;;;13.50;82.30;;;;;;5058361;28;20044;-90
2023/12/27 09:57:44;;;;;;;10.98;3.13;;;13.50;82.20;;;;;;5025169;28;20183;-91
2023/12/27 10:00:13;;;;;;;9.43;2.70;;;13.60;82.30;;;;;;5059299;28;20558;-90
2023/12/27 10:02:44;;;;;;;8.15;2.83;;;13.60;82.10;;;;;;5024987;28;20318;-84
2023/12/27 10:05:21;;;;;;;8.63;2.90;;;13.60;82.00;;;;;;5032413;28;20496;-88
2023/12/27 10:07:48;;;;;;;5.13;2.47;;;13.60;81.90;;;;;;5042660;28;20060;-89
2023/12/27 10:10:14;;;;;;;6.72;2.58;;;13.60;81.70;;;;;;5038245;28;20029;-89
2023/12/27 10:12:41;;;;;;;7.78;2.15;;;13.60;81.60;;;;;;5053882;28;20116;-90
2023/12/27 10:15:08;;;;;;;7.38;2.60;;;13.60;81.40;;;;;;5044870;28;20057;-90
2023/12/27 10:17:34;;;;;;;5.30;2.38;;;13.60;81.20;;;;;;5035747;28;21121;-88
2023/12/27 10:20:00;;;;;;;3.72;2.50;;;13.70;81.20;;;;;;5018340;28;20044;-87
2023/12/27 10:22:29;;;;;;;5.13;1.88;;;13.70;81.10;;;;;;5058628;28;20036;-86
2023/12/27 10:24:56;;;;;;;7.07;2.08;;;13.70;80.90;;;;;;5059724;28;20113;-87
2023/12/27 10:27:22;;;;;;;6.55;2.10;;;13.70;80.80;;;;;;5077636;28;20294;-86
2023/12/27 10:29:48;;;;;;;6.50;2.67;;;13.70;80.60;;;;;;5055894;28;20040;-87
2023/12/27 10:32:18;;;;;;;3.92;1.90;;;13.70;80.50;;;;;;5088773;28;20021;-88
2023/12/27 10:34:46;;;;;;;5.32;2.03;;;13.70;80.40;;;;;;5065372;28;20065;-86
2023/12/27 10:37:13;;;;;;;5.15;1.70;;;13.70;80.30;;;;;;5077798;28;20025;-86
2023/12/27 10:39:44;;;;;;;4.50;1.73;;;13.70;80.10;;;;;;5046844;28;20036;-88
2023/12/27 10:42:17;;;;;;;6.10;1.80;;;13.80;80.20;;;;;;5025176;28;20045;-85
2023/12/27 10:44:45;;;;;;;5.85;2.03;;;13.80;80.10;;;;;;5035983;28;20079;-88
2023/12/27 10:47:17;;;;;;;5.13;2.33;;;13.80;79.90;;;;;;5043340;28;20056;-88
2023/12/27 10:49:46;;;;;;;5.95;2.72;;;13.80;79.80;;;;;;5057714;28;20033;-89
2023/12/27 10:52:13;;;;;;;6.95;2.40;;;13.80;79.70;;;;;;5057275;28;20644;-90
2023/12/27 10:54:44;;;;;;;2.40;1.33;;;13.80;79.60;;;;;;5042395;28;20115;-94
2023/12/27 10:57:21;;;;;;;4.95;2.42;;;13.80;79.40;;;;;;5031347;28;20503;-90
2023/12/27 10:59:48;;;;;;;5.45;2.13;;;13.80;79.30;;;;;;5031136;28;20036;-88
2023/12/27 11:02:14;;;;;;;6.10;1.80;;;13.80;79.30;;;;;;5040210;28;20041;-89
2023/12/27 11:04:44;;;;;;;6.43;2.22;;;13.90;79.30;;;;;;5042082;28;20029;-89
2023/12/27 11:07:11;;;;;;;6.88;2.40;;;13.90;79.20;;;;;;5019450;28;20550;-90
2023/12/27 11:09:40;;;;;;;3.22;1.92;;;13.90;79.10;;;;;;5033830;28;20328;-86
2023/12/27 11:12:08;;;;;;;7.25;3.22;;;13.90;79.10;;;;;;5031395;28;20037;-87
2023/12/27 11:14:37;;;;;;;7.53;1.95;;;13.90;78.90;;;;;;5038107;28;20048;-86
2023/12/27 11:17:06;;;;;;;4.47;1.80;;;13.90;78.90;;;;;;5040777;28;20069;-87
2023/12/27 11:19:33;;;;;;;4.35;1.90;;;13.90;78.80;;;;;;5043068;28;20042;-87
2023/12/27 11:22:00;;;;;;;5.80;2.00;;;14.00;78.90;;;;;;5067951;28;20097;-89
2023/12/27 11:24:28;;;;;;;6.35;2.60;;;14.00;78.80;;;;;;5055385;28;20036;-89
2023/12/27 11:27:01;;;;;;;5.78;1.98;;;14.00;78.60;;;;;;5043134;28;20025;-91
2023/12/27 11:29:30;;;;;;;5.28;2.05;;;14.00;78.60;;;;;;5055041;28;20039;-88
2023/12/27 11:31:59;;;;;;;4.15;1.67;;;14.00;78.80;;;;;;5043157;28;20029;-91
2023/12/27 11:34:26;;;;;;;6.28;1.80;;;14.10;78.90;;;;;;5060878;28;20048;-94
2023/12/27 11:36:54;;;;;;;5.25;1.55;;;14.20;79.00;;;;;;5057106;28;20051;-91
2023/12/27 11:39:29;;;;;;;4.28;1.88;;;14.30;79.10;;;;;;5058780;28;20037;-92
2023/12/27 11:41:58;;;;;;;5.50;1.60;;;14.30;78.90;;;;;;5031905;28;20152;-91
2023/12/27 11:44:37;;;;;;;6.82;2.15;;;14.30;78.70;;;;;;5050603;28;20031;-92
2023/12/27 11:47:13;;;;;;;3.75;1.95;;;14.30;78.60;;;;;;5066470;28;20048;-92
2023/12/27 11:49:39;;;;;;;6.93;2.63;;;14.30;78.50;;;;;;5057359;28;20051;-94
2023/12/27 11:52:05;;;;;;;13.02;5.97;;;14.40;78.60;;;;;;5058422;28;20063;-91
2023/12/27 11:54:31;;;;;;;12.40;5.20;;;14.30;78.40;;;;;;5056559;28;20042;-90
2023/12/27 11:56:58;;;;;;;12.75;6.47;;;14.40;78.60;;;;;;5054288;28;20032;-90
2023/12/27 11:59:29;;;;;;;13.90;6.22;;;14.40;78.50;;;;;;5090203;28;20074;-90
2023/12/27 12:01:58;;;;;;;15.60;5.68;;;14.40;78.50;;;;;;5039846;28;20203;-89
2023/12/27 12:05:03;;;;;;;13.90;4.97;;;14.40;78.50;;;;;;5039727;28;20123;-90
2023/12/27 12:07:54;;;;;;;9.40;4.10;;;14.40;78.40;;;;;;5030298;28;20049;-86
2023/12/27 12:10:27;;;;;;;7.65;4.28;;;14.40;78.40;;;;;;5061988;28;20032;-90
2023/12/27 12:12:57;;;;;;;9.18;3.97;;;14.40;78.40;;;;;;5050126;28;20048;-92
2023/12/27 12:15:23;;;;;;;9.80;3.70;;;14.40;78.50;;;;;;5054583;28;20099;-89
2023/12/27 12:17:51;;;;;;;9.50;5.07;;;14.30;78.30;;;;;;5048925;28;20089;-89
2023/12/27 12:20:17;;;;;;;11.82;4.88;;;14.30;78.40;;;;;;5052654;28;20041;-90
2023/12/27 12:22:48;;;;;;;10.70;4.60;;;14.30;78.40;;;;;;5060096;28;20031;-84
2023/12/27 12:25:15;;;;;;;9.55;4.18;;;14.30;78.60;;;;;;5057081;28;20030;-90
2023/12/27 12:27:48;;;;;;;8.27;3.97;;;14.30;78.60;;;;;;5059759;28;20036;-89
2023/12/27 12:30:17;;;;;;;7.00;3.67;;;14.30;78.60;;;;;;5066134;28;20660;-89
2023/12/27 12:32:43;;;;;;;8.18;3.35;;;14.30;78.60;;;;;;5039464;28;20079;-89
2023/12/27 12:35:09;;;;;;;8.52;3.38;;;14.30;78.60;;;;;;5055110;28;20045;-88
2023/12/27 12:37:37;;;;;;;9.70;3.22;;;14.30;78.60;;;;;;5037374;28;20152;-87
2023/12/27 12:40:08;;;;;;;5.57;2.83;;;14.30;78.60;;;;;;5034897;28;20033;-88
2023/12/27 12:42:35;;;;;;;6.30;2.80;;;14.30;78.60;;;;;;5036697;28;20544;-90
2023/12/27 12:45:05;;;;;;;6.75;3.03;;;14.30;78.60;;;;;;5020799;28;20565;-90